createdAt,value
2023-04-16T00:01:13.788Z,72.00
2023-04-16T00:03:41.020Z,71.90
2023-04-16T00:06:08.267Z,71.80
2023-04-16T00:08:35.951Z,71.90
2023-04-16T00:11:02.982Z,71.90
2023-04-16T00:13:30.156Z,72.10
2023-04-16T00:15:57.266Z,72.30
2023-04-16T00:18:24.396Z,72.30
2023-04-16T00:20:52.277Z,72.30
2023-04-16T00:23:19.881Z,72.30
2023-04-16T00:25:47.084Z,72.20
2023-04-16T00:28:14.140Z,72.20
2023-04-16T00:30:41.333Z,72.20
2023-04-16T00:33:08.484Z,72.20
2023-04-16T00:35:35.542Z,72.30
2023-04-16T00:38:02.724Z,72.30
2023-04-16T00:40:30.674Z,72.20
2023-04-16T00:42:57.759Z,72.20
2023-04-16T00:45:24.823Z,72.00
2023-04-16T00:47:53.347Z,71.90
2023-04-16T00:50:20.505Z,71.80
2023-04-16T00:52:50.869Z,71.60
2023-04-16T00:55:19.091Z,71.60
2023-04-16T00:57:46.292Z,71.50
2023-04-16T01:00:13.996Z,71.50
2023-04-16T01:02:41.188Z,71.60
2023-04-16T01:05:09.345Z,71.60
2023-04-16T01:07:36.859Z,71.60
2023-04-16T01:10:04.609Z,71.80
2023-04-16T01:12:32.586Z,71.80
2023-04-16T01:14:59.655Z,71.80
2023-04-16T01:17:26.642Z,71.80
2023-04-16T01:19:53.724Z,71.80
2023-04-16T01:22:21.611Z,71.90
2023-04-16T01:24:48.509Z,72.00
2023-04-16T01:27:15.724Z,72.10
2023-04-16T01:29:42.868Z,72.20
2023-04-16T01:32:10.521Z,72.20
2023-04-16T01:34:40.763Z,72.10
2023-04-16T01:37:10.253Z,72.00
2023-04-16T01:39:37.189Z,71.70
2023-04-16T01:42:04.257Z,71.50
2023-04-16T01:44:31.269Z,71.20
2023-04-16T01:46:58.373Z,71.10
2023-04-16T01:49:25.909Z,71.10
2023-04-16T01:51:53.029Z,71.80
2023-04-16T01:54:20.777Z,72.50
2023-04-16T01:56:47.832Z,73.00
2023-04-16T01:59:14.759Z,73.10
2023-04-16T02:01:42.601Z,73.30
2023-04-16T02:04:10.563Z,73.40
2023-04-16T02:06:38.253Z,73.80
2023-04-16T02:09:05.455Z,73.80
2023-04-16T02:11:32.765Z,74.00
2023-04-16T02:13:59.871Z,74.00
2023-04-16T02:16:26.842Z,73.90
2023-04-16T02:18:59.885Z,74.10
2023-04-16T02:21:30.267Z,74.10
2023-04-16T02:23:57.535Z,73.90
2023-04-16T02:26:29.234Z,74.10
2023-04-16T02:29:00.332Z,74.10
2023-04-16T02:31:35.404Z,74.50
2023-04-16T02:34:03.923Z,74.60
2023-04-16T02:36:31.799Z,74.70
2023-04-16T02:38:59.808Z,74.80
2023-04-16T02:41:26.962Z,74.90
2023-04-16T02:43:54.005Z,74.80
2023-04-16T02:46:21.119Z,74.80
2023-04-16T02:48:48.173Z,74.70
2023-04-16T02:51:15.352Z,74.60
2023-04-16T02:53:45.967Z,74.30
2023-04-16T02:56:13.564Z,74.00
2023-04-16T02:58:40.555Z,73.50
2023-04-16T03:01:07.628Z,73.30
2023-04-16T03:03:34.594Z,73.20
2023-04-16T03:06:01.583Z,73.40
2023-04-16T03:08:28.759Z,73.40
2023-04-16T03:10:55.795Z,73.60
2023-04-16T03:13:22.709Z,73.70
2023-04-16T03:15:50.111Z,73.90
2023-04-16T03:18:17.144Z,74.90
2023-04-16T03:20:44.173Z,74.30
2023-04-16T03:23:11.847Z,74.30
2023-04-16T03:25:40.601Z,74.30
2023-04-16T03:28:09.148Z,74.50
2023-04-16T03:30:37.982Z,74.50
2023-04-16T03:33:06.662Z,74.30
2023-04-16T03:35:33.578Z,74.00
2023-04-16T03:38:02.736Z,73.80
2023-04-16T03:40:29.793Z,73.70
2023-04-16T03:42:57.022Z,73.80
2023-04-16T03:45:24.014Z,74.00
2023-04-16T03:47:52.942Z,74.40
2023-04-16T03:50:22.968Z,74.60
2023-04-16T03:52:49.972Z,74.70
2023-04-16T03:55:17.970Z,74.60
2023-04-16T03:57:45.813Z,74.40
2023-04-16T04:00:15.755Z,74.20
2023-04-16T04:02:55.219Z,74.20
2023-04-16T04:05:23.105Z,74.40
2023-04-16T04:07:50.664Z,74.40
2023-04-16T04:10:17.684Z,74.40
2023-04-16T04:12:44.665Z,74.30
2023-04-16T04:15:12.726Z,74.30
2023-04-16T04:17:39.725Z,74.10
2023-04-16T04:20:07.231Z,74.10
2023-04-16T04:22:34.239Z,74.00
2023-04-16T04:25:02.057Z,74.00
2023-04-16T04:27:31.952Z,74.40
2023-04-16T04:29:58.914Z,74.30
2023-04-16T04:32:26.054Z,74.30
2023-04-16T04:34:53.402Z,74.20
2023-04-16T04:37:20.610Z,73.90
2023-04-16T04:39:47.598Z,73.70
2023-04-16T04:42:16.664Z,73.50
2023-04-16T04:44:43.609Z,73.60
2023-04-16T04:47:10.750Z,73.60
2023-04-16T04:49:37.854Z,73.50
2023-04-16T04:52:04.848Z,73.50
2023-04-16T04:54:32.849Z,74.30
2023-04-16T04:57:00.243Z,73.40
2023-04-16T04:59:29.098Z,73.30
2023-04-16T05:01:56.262Z,73.20
2023-04-16T05:04:23.251Z,73.00
2023-04-16T05:06:50.172Z,73.00
2023-04-16T05:09:17.505Z,72.90
2023-04-16T05:11:44.405Z,72.90
2023-04-16T05:14:11.462Z,73.40
2023-04-16T05:16:38.591Z,73.60
2023-04-16T05:19:05.624Z,73.50
2023-04-16T05:21:32.690Z,73.30
2023-04-16T05:24:00.047Z,71.90
2023-04-16T05:26:26.977Z,70.60
2023-04-16T05:28:53.922Z,68.40
2023-04-16T05:31:21.071Z,67.40
2023-04-16T05:33:48.007Z,65.20
2023-04-16T05:36:14.896Z,62.30
2023-04-16T05:38:41.826Z,59.50
2023-04-16T05:41:08.815Z,58.60
2023-04-16T05:43:35.727Z,57.10
2023-04-16T05:46:02.679Z,56.10
2023-04-16T05:48:29.702Z,55.40
2023-04-16T05:50:56.676Z,54.70
2023-04-16T05:53:23.966Z,53.80
2023-04-16T05:55:50.971Z,52.90
2023-04-16T05:58:17.915Z,51.20
2023-04-16T06:00:45.381Z,50.60
2023-04-16T06:03:12.595Z,50.40
2023-04-16T06:05:39.659Z,50.10
2023-04-16T06:08:06.634Z,50.80
2023-04-16T06:10:33.620Z,52.30
2023-04-16T06:13:00.540Z,53.90
2023-04-16T06:15:27.467Z,55.60
2023-04-16T06:17:55.872Z,57.10
2023-04-16T06:20:22.865Z,58.30
2023-04-16T06:22:49.922Z,59.10
2023-04-16T06:25:18.214Z,59.50
2023-04-16T06:27:45.288Z,59.80
2023-04-16T06:30:16.110Z,59.90
2023-04-16T06:32:44.350Z,59.40
2023-04-16T06:35:11.598Z,58.80
2023-04-16T06:37:38.912Z,57.90
2023-04-16T06:40:06.372Z,56.80
2023-04-16T06:42:33.397Z,56.10
2023-04-16T06:45:00.662Z,55.30
2023-04-16T06:47:27.676Z,54.30
2023-04-16T06:49:54.615Z,53.70
2023-04-16T06:52:21.743Z,52.90
2023-04-16T06:54:49.004Z,51.40
2023-04-16T06:57:16.350Z,49.20
2023-04-16T06:59:43.396Z,47.60
2023-04-16T07:02:10.531Z,46.70
2023-04-16T07:04:37.691Z,46.10
2023-04-16T07:07:04.534Z,45.50
2023-04-16T07:09:31.461Z,43.60
2023-04-16T07:11:58.422Z,43.00
2023-04-16T07:14:25.347Z,41.00
2023-04-16T07:16:52.271Z,39.80
2023-04-16T07:19:19.123Z,38.90
2023-04-16T07:21:46.329Z,38.00
2023-04-16T07:24:13.202Z,37.30
2023-04-16T07:26:40.010Z,36.10
2023-04-16T07:29:07.015Z,36.20
2023-04-16T07:31:34.071Z,35.40
2023-04-16T07:34:01.171Z,34.70
2023-04-16T07:36:28.409Z,34.00
2023-04-16T07:38:56.080Z,33.40
2023-04-16T07:41:23.030Z,32.60
2023-04-16T07:43:50.043Z,31.70
2023-04-16T07:46:16.856Z,31.20
2023-04-16T07:48:43.774Z,30.50
2023-04-16T07:51:10.620Z,29.90
2023-04-16T07:53:37.527Z,29.50
2023-04-16T07:56:04.433Z,29.30
2023-04-16T07:58:31.254Z,29.10
2023-04-16T08:00:58.345Z,28.70
2023-04-16T08:03:25.419Z,28.90
2023-04-16T08:05:52.373Z,29.30
2023-04-16T08:08:19.336Z,29.60
2023-04-16T08:10:46.309Z,29.80
2023-04-16T08:13:13.245Z,29.90
2023-04-16T08:15:40.128Z,30.40
2023-04-16T08:18:12.772Z,30.00
2023-04-16T08:20:39.682Z,30.20
2023-04-16T08:23:06.745Z,30.90
2023-04-16T08:25:33.608Z,31.30
2023-04-16T08:28:00.434Z,31.60
2023-04-16T08:30:27.368Z,30.40
2023-04-16T08:32:54.406Z,30.20
2023-04-16T08:35:21.377Z,30.40
2023-04-16T08:37:48.217Z,30.40
2023-04-16T08:40:15.165Z,30.20
2023-04-16T08:42:46.062Z,30.20
2023-04-16T08:45:17.845Z,29.90
2023-04-16T08:47:48.399Z,29.50
2023-04-16T08:50:16.502Z,29.40
2023-04-16T08:52:46.502Z,29.50
2023-04-16T08:55:16.480Z,29.70
2023-04-16T08:57:54.323Z,29.70
2023-04-16T09:00:21.586Z,29.60
2023-04-16T09:02:50.320Z,29.50
2023-04-16T09:05:18.028Z,29.40
2023-04-16T09:07:46.173Z,29.40
2023-04-16T09:10:14.269Z,28.90
2023-04-16T09:12:42.441Z,28.70
2023-04-16T09:15:10.370Z,28.70
2023-04-16T09:17:37.461Z,28.20
2023-04-16T09:20:11.263Z,28.40
2023-04-16T09:22:40.304Z,28.00
2023-04-16T09:25:07.543Z,27.60
2023-04-16T09:27:34.364Z,28.00
2023-04-16T09:30:01.462Z,28.10
2023-04-16T09:32:28.836Z,28.30
2023-04-16T09:34:55.727Z,28.70
2023-04-16T09:37:23.220Z,28.90
2023-04-16T09:40:08.270Z,29.10
2023-04-16T09:42:38.233Z,29.10
2023-04-16T09:45:06.186Z,29.30
2023-04-16T09:47:41.996Z,28.90
2023-04-16T09:50:12.643Z,28.90
2023-04-16T09:52:40.337Z,28.60
2023-04-16T09:55:07.256Z,28.80
2023-04-16T09:57:37.811Z,28.60
2023-04-16T10:00:06.083Z,28.60
2023-04-16T10:02:34.652Z,29.20
2023-04-16T10:05:02.989Z,28.70
2023-04-16T10:07:33.230Z,28.80
2023-04-16T10:10:00.159Z,29.10
2023-04-16T10:12:28.821Z,29.00
2023-04-16T10:14:55.640Z,29.70
2023-04-16T10:17:24.046Z,30.60
2023-04-16T10:19:51.188Z,30.80
2023-04-16T10:22:18.877Z,30.20
2023-04-16T10:24:46.819Z,30.20
2023-04-16T10:27:13.653Z,30.30
2023-04-16T10:29:40.873Z,31.60
2023-04-16T10:32:08.148Z,33.30
2023-04-16T10:34:35.335Z,34.10
2023-04-16T10:37:02.245Z,34.90
2023-04-16T10:39:29.664Z,33.30
2023-04-16T10:42:10.219Z,32.20
2023-04-16T10:44:37.327Z,33.20
2023-04-16T10:47:11.136Z,34.00
2023-04-16T10:49:38.253Z,33.40
2023-04-16T10:52:12.427Z,31.70
2023-04-16T10:54:39.860Z,30.60
2023-04-16T10:57:08.067Z,29.90
2023-04-16T10:59:36.486Z,29.50
2023-04-16T11:02:14.280Z,29.10
2023-04-16T11:04:48.325Z,28.10
2023-04-16T11:07:17.168Z,28.20
2023-04-16T11:09:45.917Z,29.70
2023-04-16T11:12:32.959Z,30.00
2023-04-16T11:15:01.398Z,30.20
2023-04-16T11:17:37.531Z,32.80
2023-04-16T11:20:18.911Z,34.10
2023-04-16T11:22:47.619Z,35.70
2023-04-16T11:25:19.556Z,35.40
2023-04-16T11:27:46.551Z,34.40
2023-04-16T11:30:13.624Z,33.70
2023-04-16T11:32:40.734Z,31.50
2023-04-16T11:35:18.151Z,30.50
2023-04-16T11:37:45.416Z,29.70
2023-04-16T11:40:12.756Z,28.80
2023-04-16T11:42:43.508Z,27.90
2023-04-16T11:45:11.308Z,27.50
2023-04-16T11:47:45.970Z,27.30
2023-04-16T11:50:20.078Z,27.50
2023-04-16T11:52:47.156Z,27.20
2023-04-16T11:55:14.132Z,27.40
2023-04-16T11:57:41.298Z,27.60
2023-04-16T12:00:13.976Z,27.40
2023-04-16T12:02:45.121Z,27.20
2023-04-16T12:05:28.861Z,26.70
2023-04-16T12:08:00.461Z,27.60
2023-04-16T12:10:27.718Z,27.80
2023-04-16T12:12:54.503Z,28.70
2023-04-16T12:15:21.554Z,30.30
2023-04-16T12:17:48.824Z,30.90
2023-04-16T12:20:15.786Z,30.40
2023-04-16T12:22:47.108Z,29.40
2023-04-16T12:25:15.155Z,29.00
2023-04-16T12:27:42.032Z,29.50
2023-04-16T12:30:09.324Z,30.70
2023-04-16T12:32:36.558Z,31.10
2023-04-16T12:35:04.041Z,31.40
2023-04-16T12:37:31.507Z,30.50
2023-04-16T12:39:58.326Z,31.60
2023-04-16T12:42:25.349Z,32.90
2023-04-16T12:44:52.426Z,33.20
2023-04-16T12:47:19.341Z,33.00
2023-04-16T12:49:46.246Z,33.70
2023-04-16T12:52:13.179Z,34.70
2023-04-16T12:54:40.090Z,35.80
2023-04-16T12:57:07.151Z,36.70
2023-04-16T12:59:34.249Z,37.70
2023-04-16T13:02:02.588Z,38.70
2023-04-16T13:04:29.882Z,39.60
2023-04-16T13:06:56.837Z,40.10
2023-04-16T13:09:24.082Z,38.90
2023-04-16T13:11:51.260Z,37.30
2023-04-16T13:14:18.390Z,37.50
2023-04-16T13:16:45.483Z,37.50
2023-04-16T13:19:12.547Z,37.90
2023-04-16T13:21:39.865Z,37.10
2023-04-16T13:24:06.896Z,35.40
2023-04-16T13:26:33.872Z,34.30
2023-04-16T13:29:00.963Z,34.80
2023-04-16T13:31:28.025Z,34.80
2023-04-16T13:33:55.409Z,33.70
2023-04-16T13:36:22.379Z,33.30
2023-04-16T13:38:49.473Z,34.50
2023-04-16T13:41:17.298Z,34.50
2023-04-16T13:43:44.100Z,34.80
2023-04-16T13:46:11.059Z,35.60
2023-04-16T13:48:38.136Z,36.70
2023-04-16T13:51:04.963Z,37.50
2023-04-16T13:53:32.012Z,38.60
2023-04-16T13:55:58.916Z,39.50
2023-04-16T13:58:26.023Z,40.50
2023-04-16T14:00:53.230Z,39.60
2023-04-16T14:03:20.113Z,40.00
2023-04-16T14:05:47.086Z,40.10
2023-04-16T14:08:14.885Z,40.70
2023-04-16T14:10:41.890Z,40.80
2023-04-16T14:13:08.807Z,40.30
2023-04-16T14:15:36.099Z,40.40
2023-04-16T14:18:03.916Z,40.80
2023-04-16T14:20:31.253Z,40.60
2023-04-16T14:22:58.093Z,40.30
2023-04-16T14:25:25.137Z,39.80
2023-04-16T14:27:51.954Z,40.20
2023-04-16T14:30:18.821Z,40.70
2023-04-16T14:32:45.760Z,41.50
2023-04-16T14:35:12.642Z,42.20
2023-04-16T14:37:39.684Z,42.80
2023-04-16T14:40:08.763Z,43.20
2023-04-16T14:42:39.161Z,43.00
2023-04-16T14:45:06.785Z,43.40
2023-04-16T14:47:34.413Z,43.90
2023-04-16T14:50:01.646Z,44.30
2023-04-16T14:52:28.599Z,44.10
2023-04-16T14:54:55.858Z,44.00
2023-04-16T14:57:22.838Z,44.10
2023-04-16T14:59:50.195Z,44.50
2023-04-16T15:02:17.302Z,44.80
2023-04-16T15:04:44.378Z,45.10
2023-04-16T15:07:11.463Z,45.00
2023-04-16T15:09:38.451Z,45.30
2023-04-16T15:12:05.623Z,44.90
2023-04-16T15:14:33.157Z,44.00
2023-04-16T15:17:00.041Z,42.80
2023-04-16T15:19:29.116Z,42.70
2023-04-16T15:21:56.159Z,43.40
2023-04-16T15:24:22.987Z,43.90
2023-04-16T15:26:49.985Z,44.10
2023-04-16T15:29:17.149Z,44.30
2023-04-16T15:31:43.980Z,44.40
2023-04-16T15:34:11.158Z,44.20
2023-04-16T15:36:38.257Z,44.60
2023-04-16T15:39:05.482Z,45.00
2023-04-16T15:41:32.346Z,44.60
2023-04-16T15:43:59.265Z,44.80
2023-04-16T15:46:26.180Z,45.50
2023-04-16T15:48:53.077Z,45.80
2023-04-16T15:51:19.909Z,46.00
2023-04-16T15:53:47.775Z,46.70
2023-04-16T15:56:14.582Z,46.80
2023-04-16T15:58:41.574Z,47.00
2023-04-16T16:01:08.721Z,47.30
2023-04-16T16:03:36.558Z,47.90
2023-04-16T16:06:07.736Z,48.80
2023-04-16T16:08:37.041Z,49.90
2023-04-16T16:11:04.481Z,50.60
2023-04-16T16:13:31.404Z,51.40
2023-04-16T16:15:59.065Z,52.50
2023-04-16T16:18:26.093Z,53.30
2023-04-16T16:20:56.955Z,54.00
2023-04-16T16:23:24.103Z,54.20
2023-04-16T16:25:51.691Z,54.40
2023-04-16T16:28:18.937Z,55.00
2023-04-16T16:30:47.036Z,55.90
2023-04-16T16:33:14.769Z,56.80
2023-04-16T16:35:42.591Z,56.90
2023-04-16T16:38:09.785Z,56.60
2023-04-16T16:40:39.556Z,56.70
2023-04-16T16:43:07.556Z,57.10
2023-04-16T16:45:34.516Z,57.40
2023-04-16T16:48:03.606Z,57.70
2023-04-16T16:50:33.673Z,57.40
2023-04-16T16:53:00.507Z,57.40
2023-04-16T16:55:27.611Z,57.30
2023-04-16T16:57:54.613Z,57.90
2023-04-16T17:00:22.367Z,58.00
2023-04-16T17:02:51.250Z,58.50
2023-04-16T17:05:18.347Z,59.20
2023-04-16T17:07:45.838Z,58.80
2023-04-16T17:10:15.941Z,59.20
2023-04-16T17:12:42.752Z,59.90
2023-04-16T17:15:09.812Z,61.50
2023-04-16T17:17:36.961Z,63.50
2023-04-16T17:20:09.181Z,64.50
2023-04-16T17:22:36.526Z,65.90
2023-04-16T17:25:03.876Z,66.40
2023-04-16T17:27:34.283Z,65.10
2023-04-16T17:30:01.921Z,65.20
2023-04-16T17:32:29.307Z,65.10
2023-04-16T17:34:56.599Z,64.90
2023-04-16T17:37:23.544Z,64.90
2023-04-16T17:39:51.417Z,65.50
2023-04-16T17:42:18.335Z,65.90
2023-04-16T17:44:45.893Z,66.90
2023-04-16T17:47:13.008Z,67.90
2023-04-16T17:49:40.032Z,68.60
2023-04-16T17:52:07.174Z,69.30
2023-04-16T17:54:34.188Z,70.20
2023-04-16T17:57:02.210Z,70.60
2023-04-16T17:59:29.430Z,70.80
2023-04-16T18:01:56.908Z,71.00
2023-04-16T18:04:24.096Z,71.50
2023-04-16T18:06:51.164Z,72.10
2023-04-16T18:09:19.522Z,72.60
2023-04-16T18:11:46.648Z,73.50
2023-04-16T18:14:16.798Z,74.00
2023-04-16T18:16:46.028Z,74.60
2023-04-16T18:19:13.293Z,75.00
2023-04-16T18:21:40.691Z,75.30
2023-04-16T18:24:08.005Z,75.50
2023-04-16T18:26:36.165Z,75.90
2023-04-16T18:29:04.480Z,76.10
2023-04-16T18:31:31.757Z,76.20
2023-04-16T18:33:58.840Z,76.30
2023-04-16T18:36:26.986Z,76.60
2023-04-16T18:41:27.197Z,77.30
2023-04-16T18:43:54.682Z,77.50
2023-04-16T18:46:21.654Z,77.70
2023-04-16T18:48:48.746Z,78.00
2023-04-16T18:51:16.614Z,78.30
2023-04-16T18:53:45.584Z,78.40
2023-04-16T18:56:13.096Z,78.30
2023-04-16T18:58:40.046Z,78.30
2023-04-16T19:01:28.179Z,78.50
2023-04-16T19:03:56.395Z,78.90
2023-04-16T19:06:23.746Z,79.00
2023-04-16T19:08:55.710Z,79.00
2023-04-16T19:11:24.316Z,78.90
2023-04-16T19:13:51.374Z,78.80
2023-04-16T19:16:18.304Z,78.90
2023-04-16T19:18:45.361Z,78.80
2023-04-16T19:21:12.271Z,78.90
2023-04-16T19:23:39.314Z,79.00
2023-04-16T19:26:06.334Z,79.20
2023-04-16T19:28:33.443Z,79.40
2023-04-16T19:31:00.420Z,79.20
2023-04-16T19:33:27.433Z,79.10
2023-04-16T19:35:54.561Z,79.10
2023-04-16T19:38:21.534Z,78.90
2023-04-16T19:40:49.026Z,78.80
2023-04-16T19:43:15.976Z,78.90
2023-04-16T19:45:47.781Z,78.80
2023-04-16T19:48:15.039Z,78.90
2023-04-16T19:50:42.740Z,78.60
2023-04-16T19:53:10.616Z,78.60
2023-04-16T19:55:39.988Z,78.50
2023-04-16T19:58:07.928Z,78.30
2023-04-16T20:00:37.685Z,78.30
2023-04-16T20:03:06.301Z,78.20
2023-04-16T20:05:33.930Z,78.20
2023-04-16T20:08:01.092Z,78.30
2023-04-16T20:10:28.156Z,78.30
2023-04-16T20:12:55.069Z,78.30
2023-04-16T20:15:22.115Z,78.30
2023-04-16T20:17:49.177Z,78.40
2023-04-16T20:20:16.479Z,78.50
2023-04-16T20:22:44.569Z,78.50
2023-04-16T20:25:11.748Z,78.30
2023-04-16T20:27:38.992Z,78.30
2023-04-16T20:30:06.624Z,78.20
2023-04-16T20:32:33.667Z,78.20
2023-04-16T20:35:02.072Z,78.00
2023-04-16T20:37:32.493Z,78.00
2023-04-16T20:40:03.948Z,77.90
2023-04-16T20:42:32.280Z,77.90
2023-04-16T20:45:01.107Z,77.90
2023-04-16T20:47:28.220Z,77.70
2023-04-16T20:49:58.245Z,77.80
2023-04-16T20:52:25.461Z,77.80
2023-04-16T20:54:52.412Z,77.90
2023-04-16T20:57:19.504Z,77.90
2023-04-16T20:59:46.478Z,77.90
2023-04-16T21:02:13.794Z,77.80
2023-04-16T21:04:41.228Z,77.80
2023-04-16T21:07:08.255Z,78.00
2023-04-16T21:09:35.737Z,77.90
2023-04-16T21:12:02.721Z,77.90
2023-04-16T21:14:29.718Z,77.90
2023-04-16T21:16:56.727Z,77.90
2023-04-16T21:19:23.650Z,77.90
2023-04-16T21:21:50.731Z,78.00
2023-04-16T21:24:17.700Z,78.00
2023-04-16T21:26:44.643Z,77.90
2023-04-16T21:29:11.879Z,77.90
2023-04-16T21:31:38.953Z,77.90
2023-04-16T21:34:06.114Z,78.00
2023-04-16T21:36:34.081Z,78.00
2023-04-16T21:39:01.241Z,78.00
2023-04-16T21:41:28.197Z,78.00
2023-04-16T21:43:55.180Z,78.00
2023-04-16T21:46:22.691Z,78.00
2023-04-16T21:48:49.903Z,78.00
2023-04-16T21:51:18.165Z,78.00
2023-04-16T21:53:45.096Z,78.00
2023-04-16T21:56:12.098Z,78.20
2023-04-16T21:58:39.057Z,78.50
2023-04-16T22:01:07.700Z,78.70
2023-04-16T22:03:40.359Z,79.00
2023-04-16T22:06:07.894Z,79.20
2023-04-16T22:08:34.971Z,79.30
2023-04-16T22:11:03.195Z,79.30
2023-04-16T22:13:36.378Z,79.20
2023-04-16T22:16:03.892Z,79.20
2023-04-16T22:18:33.749Z,79.10
2023-04-16T22:21:01.008Z,79.20
2023-04-16T22:23:28.085Z,79.20
2023-04-16T22:25:56.105Z,79.20
2023-04-16T22:28:23.538Z,79.20
2023-04-16T22:30:51.251Z,79.20
2023-04-16T22:33:18.380Z,79.10
2023-04-16T22:35:46.201Z,79.10
2023-04-16T22:38:13.260Z,79.20
2023-04-16T22:40:40.481Z,79.20
2023-04-16T22:43:07.468Z,79.30
2023-04-16T22:45:34.719Z,79.30
2023-04-16T22:48:01.787Z,79.60
2023-04-16T22:50:31.390Z,79.70
2023-04-16T22:52:58.859Z,79.80
2023-04-16T22:55:26.053Z,79.70
2023-04-16T22:57:53.024Z,79.70
2023-04-16T23:00:20.084Z,79.80
2023-04-16T23:02:47.195Z,79.90
2023-04-16T23:05:14.225Z,80.00
2023-04-16T23:07:41.329Z,80.10
2023-04-16T23:10:08.798Z,80.30
2023-04-16T23:12:39.218Z,80.50
2023-04-16T23:15:07.015Z,81.00
2023-04-16T23:17:35.205Z,81.30
2023-04-16T23:20:02.825Z,81.40
2023-04-16T23:22:29.816Z,82.20
2023-04-16T23:24:57.111Z,81.50
2023-04-16T23:27:24.108Z,81.50
2023-04-16T23:29:51.141Z,81.50
2023-04-16T23:32:18.184Z,81.50
2023-04-16T23:34:45.332Z,81.40
2023-04-16T23:37:12.543Z,81.40
2023-04-16T23:39:39.478Z,81.30
2023-04-16T23:42:07.263Z,81.20
2023-04-16T23:44:34.225Z,81.20
2023-04-16T23:47:01.280Z,81.20
2023-04-16T23:49:28.553Z,81.20
2023-04-16T23:51:55.548Z,81.30
2023-04-16T23:54:22.679Z,81.40
2023-04-16T23:56:49.907Z,81.40
2023-04-16T23:59:16.946Z,81.40
